Time;durP1;ratioP1;P1;durP2;ratioP2;P2;SDS_P1;SDS_P2;PMS_P1;PMS_P2;Temp;Humidity;BMP_temperature;BMP_pressure;BME280_temperature;BME280_humidity;BME280_pressure;Samples;Min_cycle;Max_cycle;Signal;HPM_P1;HPM_P2
2023/12/29 00:02:19;;;;;;;3.17;1.42;;;6.90;99.90;;;;;;5013513;28;20029;-58
2023/12/29 00:04:45;;;;;;;2.72;1.55;;;7.00;99.90;;;;;;5015621;28;20029;-59
2023/12/29 00:07:10;;;;;;;2.20;1.10;;;7.00;99.90;;;;;;5014696;28;20512;-59
2023/12/29 00:09:40;;;;;;;4.22;1.42;;;7.10;99.90;;;;;;5013765;28;20064;-59
2023/12/29 00:12:07;;;;;;;3.17;1.40;;;7.10;99.90;;;;;;5017357;28;20488;-59
2023/12/29 00:14:32;;;;;;;1.92;1.50;;;7.10;99.90;;;;;;5017307;28;20152;-61
2023/12/29 00:16:58;;;;;;;2.75;1.50;;;7.10;99.90;;;;;;5016136;28;20517;-58
2023/12/29 00:19:23;;;;;;;3.53;1.20;;;7.10;99.90;;;;;;5009010;28;20021;-58
2023/12/29 00:21:49;;;;;;;6.03;1.40;;;7.20;99.90;;;;;;5009316;28;20030;-58
2023/12/29 00:24:14;;;;;;;2.55;1.42;;;7.20;99.90;;;;;;5015377;28;20041;-59
2023/12/29 00:26:40;;;;;;;2.85;1.33;;;7.30;99.90;;;;;;5012971;28;20654;-57
2023/12/29 00:29:06;;;;;;;2.53;1.50;;;7.30;99.90;;;;;;5015162;28;20063;-58
2023/12/29 00:31:32;;;;;;;3.78;1.65;;;7.30;99.90;;;;;;5011920;28;20116;-58
2023/12/29 00:33:57;;;;;;;2.55;1.38;;;7.30;99.90;;;;;;5009450;28;20748;-58
2023/12/29 00:36:23;;;;;;;1.20;1.08;;;7.30;99.90;;;;;;5011022;28;20061;-57
2023/12/29 00:38:49;;;;;;;4.63;1.40;;;7.40;99.90;;;;;;5026288;28;20030;-59
2023/12/29 00:41:14;;;;;;;1.58;1.13;;;7.30;99.90;;;;;;5014661;28;20060;-58
2023/12/29 00:43:40;;;;;;;4.70;1.60;;;7.30;99.90;;;;;;5008991;28;20115;-58
2023/12/29 00:46:05;;;;;;;5.50;1.77;;;7.30;99.90;;;;;;5011148;28;20514;-60
2023/12/29 00:48:32;;;;;;;4.28;1.75;;;7.40;99.90;;;;;;5010753;28;20042;-58
2023/12/29 00:50:57;;;;;;;4.50;1.55;;;7.40;99.90;;;;;;5008523;28;20033;-59
2023/12/29 00:53:23;;;;;;;4.70;1.40;;;7.40;99.90;;;;;;5014204;28;20017;-58
2023/12/29 00:55:49;;;;;;;2.20;1.30;;;7.40;99.90;;;;;;5007367;28;20041;-58
2023/12/29 00:58:14;;;;;;;2.40;1.45;;;7.50;99.90;;;;;;5015515;28;20065;-58
2023/12/29 01:00:40;;;;;;;2.45;1.63;;;7.50;99.90;;;;;;5013200;28;20080;-59
2023/12/29 01:03:05;;;;;;;3.30;1.27;;;7.50;99.90;;;;;;5000525;28;20040;-59
2023/12/29 01:05:31;;;;;;;2.13;1.10;;;7.50;99.90;;;;;;5009573;28;20701;-53
2023/12/29 01:07:56;;;;;;;3.95;1.35;;;7.50;99.90;;;;;;5012489;28;20940;-57
2023/12/29 01:10:22;;;;;;;1.75;1.17;;;7.50;99.90;;;;;;5014312;28;20029;-56
2023/12/29 01:12:47;;;;;;;1.10;0.98;;;7.50;99.90;;;;;;5012178;28;20936;-59
2023/12/29 01:15:13;;;;;;;1.60;1.10;;;7.50;99.90;;;;;;5011808;28;20404;-59
2023/12/29 01:17:38;;;;;;;2.22;1.20;;;7.40;99.90;;;;;;5016705;28;20068;-57
2023/12/29 01:20:04;;;;;;;1.75;1.27;;;7.40;99.90;;;;;;5012392;28;20080;-57
2023/12/29 01:22:30;;;;;;;3.80;1.40;;;7.40;99.90;;;;;;5018760;28;20034;-59
2023/12/29 01:24:55;;;;;;;3.53;1.60;;;7.40;99.90;;;;;;5009510;28;20041;-59
2023/12/29 01:27:21;;;;;;;4.25;1.90;;;7.40;99.90;;;;;;5012017;28;20485;-57
2023/12/29 01:29:47;;;;;;;3.40;1.38;;;7.40;99.90;;;;;;5008831;28;20022;-56
2023/12/29 01:32:12;;;;;;;1.70;1.30;;;7.40;99.90;;;;;;5012738;28;20040;-56
2023/12/29 01:34:38;;;;;;;2.63;1.35;;;7.40;99.90;;;;;;5011078;28;20495;-56
2023/12/29 01:37:04;;;;;;;2.30;1.30;;;7.40;99.90;;;;;;5013659;28;20032;-59
2023/12/29 01:39:30;;;;;;;1.80;1.45;;;7.30;99.90;;;;;;5016046;28;20025;-60
2023/12/29 01:41:56;;;;;;;4.47;1.63;;;7.40;99.90;;;;;;5016300;28;20029;-58
2023/12/29 01:44:22;;;;;;;2.50;1.40;;;7.30;99.90;;;;;;5016145;28;20032;-60
2023/12/29 01:46:50;;;;;;;4.70;1.55;;;7.30;99.90;;;;;;5019786;28;20617;-59
2023/12/29 01:49:19;;;;;;;2.25;1.40;;;7.30;99.90;;;;;;5015877;28;20029;-55
2023/12/29 01:51:49;;;;;;;2.15;1.65;;;7.30;99.90;;;;;;5010623;28;20033;-57
2023/12/29 01:54:15;;;;;;;4.50;1.58;;;7.30;99.90;;;;;;5012689;28;20029;-56
2023/12/29 01:56:41;;;;;;;1.83;1.42;;;7.30;99.90;;;;;;5015175;28;20025;-57
2023/12/29 01:59:07;;;;;;;2.92;1.50;;;7.30;99.90;;;;;;5012636;28;20410;-58
2023/12/29 02:01:33;;;;;;;3.13;1.63;;;7.30;99.90;;;;;;5008191;28;20047;-58
2023/12/29 02:03:58;;;;;;;3.63;1.35;;;7.30;99.90;;;;;;5019699;28;20030;-56
2023/12/29 02:06:25;;;;;;;4.00;1.48;;;7.30;99.90;;;;;;5019829;28;20125;-56
2023/12/29 02:08:51;;;;;;;2.53;1.60;;;7.30;99.90;;;;;;5018461;28;20100;-58
2023/12/29 02:11:17;;;;;;;1.75;1.50;;;7.20;99.90;;;;;;5017611;28;20405;-58
2023/12/29 02:13:43;;;;;;;3.58;1.75;;;7.20;99.90;;;;;;5015002;28;20022;-58
2023/12/29 02:16:27;;;;;;;3.30;1.27;;;7.20;99.90;;;;;;5010908;28;20040;-57
2023/12/29 02:18:54;;;;;;;2.67;1.58;;;7.20;99.90;;;;;;5018123;28;20025;-59
2023/12/29 02:21:25;;;;;;;2.05;1.50;;;7.30;99.90;;;;;;5018812;28;20026;-56
2023/12/29 02:23:50;;;;;;;4.43;1.48;;;7.20;99.90;;;;;;5018980;28;20108;-58
2023/12/29 02:26:18;;;;;;;2.08;1.10;;;7.20;99.90;;;;;;5020391;28;20108;-59
2023/12/29 02:28:52;;;;;;;5.07;2.10;;;7.20;99.90;;;;;;5008863;28;20294;-56
2023/12/29 02:31:23;;;;;;;2.22;1.52;;;7.20;99.90;;;;;;5014658;28;20025;-56
2023/12/29 02:33:50;;;;;;;4.03;1.35;;;7.30;99.90;;;;;;5014229;28;20028;-56
2023/12/29 02:36:16;;;;;;;2.63;1.70;;;7.30;99.90;;;;;;5011742;28;20049;-57
2023/12/29 02:38:42;;;;;;;2.40;1.30;;;7.30;99.90;;;;;;5013582;28;20411;-57
2023/12/29 02:41:08;;;;;;;2.03;1.25;;;7.30;99.90;;;;;;5017521;28;20025;-57
2023/12/29 02:43:33;;;;;;;1.90;1.65;;;7.20;99.90;;;;;;5018621;28;20037;-57
2023/12/29 02:45:59;;;;;;;4.15;1.55;;;7.20;99.90;;;;;;5011525;28;20022;-56
2023/12/29 02:48:24;;;;;;;3.88;1.67;;;7.20;99.90;;;;;;5007583;28;20485;-57
2023/12/29 02:50:50;;;;;;;5.25;1.70;;;7.20;99.90;;;;;;5010106;28;20029;-57
2023/12/29 02:53:16;;;;;;;2.10;1.40;;;7.20;99.90;;;;;;5012310;28;20735;-57
2023/12/29 02:55:41;;;;;;;3.15;2.00;;;7.20;99.90;;;;;;5012753;28;20535;-56
2023/12/29 02:58:08;;;;;;;3.03;1.38;;;7.20;99.90;;;;;;5016956;28;20075;-58
2023/12/29 03:00:34;;;;;;;4.22;1.63;;;7.20;99.90;;;;;;5016877;28;20044;-57
2023/12/29 03:02:59;;;;;;;2.35;1.55;;;7.20;99.90;;;;;;5010903;28;20022;-57
2023/12/29 03:05:25;;;;;;;2.13;1.48;;;7.20;99.90;;;;;;5020005;28;20041;-57
2023/12/29 03:07:50;;;;;;;4.22;1.60;;;7.20;99.90;;;;;;5015342;28;20037;-57
2023/12/29 03:10:16;;;;;;;4.90;1.63;;;7.20;99.90;;;;;;5017995;28;20063;-58
2023/12/29 03:12:41;;;;;;;3.03;1.30;;;7.30;99.90;;;;;;5017685;28;20271;-59
2023/12/29 03:15:07;;;;;;;2.58;1.60;;;7.30;99.90;;;;;;5017777;28;20060;-68
2023/12/29 03:17:32;;;;;;;2.00;1.17;;;7.40;99.90;;;;;;5019618;28;20029;-57
2023/12/29 03:19:58;;;;;;;3.63;1.30;;;7.40;99.90;;;;;;5015252;28;20033;-56
2023/12/29 03:22:24;;;;;;;1.67;1.27;;;7.50;99.90;;;;;;5017406;28;20061;-56
2023/12/29 03:24:49;;;;;;;2.10;1.50;;;7.50;99.90;;;;;;5017258;28;20060;-55
2023/12/29 03:27:15;;;;;;;2.38;1.80;;;7.40;99.90;;;;;;5017702;28;20033;-57
2023/12/29 03:29:40;;;;;;;2.30;1.38;;;7.50;99.90;;;;;;5019099;28;20042;-55
2023/12/29 03:32:07;;;;;;;3.45;1.23;;;7.50;99.90;;;;;;5021764;28;20030;-57
2023/12/29 03:34:33;;;;;;;1.80;1.20;;;7.50;99.90;;;;;;5014361;28;20030;-56
2023/12/29 03:36:58;;;;;;;2.60;1.77;;;7.50;99.90;;;;;;5014186;28;23061;-55
2023/12/29 03:39:23;;;;;;;2.63;1.50;;;7.60;99.90;;;;;;5019930;28;20026;-57
2023/12/29 03:41:49;;;;;;;2.67;1.38;;;7.60;99.90;;;;;;5019682;28;20037;-57
2023/12/29 03:44:15;;;;;;;1.55;1.30;;;7.60;99.90;;;;;;5019694;28;20040;-57
2023/12/29 03:46:40;;;;;;;1.83;1.20;;;7.60;99.80;;;;;;5021537;28;20418;-57
2023/12/29 03:49:06;;;;;;;1.52;1.08;;;7.50;99.90;;;;;;5019555;28;20029;-57
2023/12/29 03:51:31;;;;;;;1.50;1.10;;;7.50;99.90;;;;;;5019590;28;20041;-57
2023/12/29 03:53:58;;;;;;;2.00;1.02;;;7.40;99.90;;;;;;5018378;28;20021;-57
2023/12/29 03:56:23;;;;;;;2.08;1.48;;;7.50;99.90;;;;;;5019470;28;20022;-56
2023/12/29 03:58:49;;;;;;;3.15;1.20;;;7.40;99.90;;;;;;5019298;28;20048;-57
2023/12/29 04:01:16;;;;;;;2.03;1.40;;;7.40;99.90;;;;;;5017473;28;20107;-56
2023/12/29 04:03:42;;;;;;;1.63;1.05;;;7.50;99.90;;;;;;5019566;28;20083;-57
2023/12/29 04:06:08;;;;;;;4.13;1.23;;;7.50;99.90;;;;;;5016759;28;20022;-57
2023/12/29 04:08:37;;;;;;;4.95;1.65;;;7.50;99.90;;;;;;5014743;28;20449;-57
2023/12/29 04:11:04;;;;;;;5.70;1.15;;;7.60;99.90;;;;;;5019023;28;20051;-57
2023/12/29 04:13:31;;;;;;;1.95;1.25;;;7.60;99.90;;;;;;5019336;28;20029;-57
2023/12/29 04:15:56;;;;;;;2.83;1.35;;;7.60;99.90;;;;;;5019213;28;20025;-56
2023/12/29 04:18:24;;;;;;;2.53;1.27;;;7.70;99.90;;;;;;5019225;28;20442;-57
2023/12/29 04:20:50;;;;;;;3.00;1.33;;;7.70;99.60;;;;;;5012191;28;20393;-57
2023/12/29 04:23:15;;;;;;;1.52;1.13;;;7.70;99.60;;;;;;5012160;28;20488;-57
2023/12/29 04:25:41;;;;;;;1.92;1.10;;;7.70;99.60;;;;;;5014040;28;20068;-57
2023/12/29 04:28:08;;;;;;;2.67;1.33;;;7.80;99.30;;;;;;5018999;28;20018;-55
2023/12/29 04:30:34;;;;;;;2.03;1.30;;;7.80;99.10;;;;;;5019498;28;20029;-57
2023/12/29 04:32:59;;;;;;;1.60;1.20;;;7.80;99.10;;;;;;5019292;28;20021;-57
2023/12/29 04:35:25;;;;;;;2.15;1.23;;;7.70;99.00;;;;;;5019220;28;20032;-57
2023/12/29 04:37:51;;;;;;;1.80;1.10;;;7.70;99.00;;;;;;5017217;28;20029;-57
2023/12/29 04:40:17;;;;;;;3.13;1.15;;;7.60;98.90;;;;;;5015521;28;20045;-57
2023/12/29 04:42:42;;;;;;;2.25;1.20;;;7.60;98.70;;;;;;5013480;28;20160;-57
2023/12/29 04:45:08;;;;;;;1.85;1.00;;;7.60;98.70;;;;;;5010833;28;20539;-55
2023/12/29 04:47:33;;;;;;;3.00;1.13;;;7.60;98.80;;;;;;5014151;28;20030;-58
2023/12/29 04:49:59;;;;;;;1.83;1.20;;;7.60;98.80;;;;;;5011703;28;20029;-57
2023/12/29 04:52:24;;;;;;;2.75;1.30;;;7.60;98.90;;;;;;5020713;28;20045;-57
2023/12/29 04:54:50;;;;;;;3.30;0.95;;;7.60;99.00;;;;;;5018999;28;20065;-57
2023/12/29 04:57:15;;;;;;;3.13;1.10;;;7.60;99.00;;;;;;5016353;28;20030;-57
2023/12/29 04:59:41;;;;;;;2.67;1.40;;;7.60;99.10;;;;;;5011371;28;20036;-57
2023/12/29 05:02:06;;;;;;;2.58;1.42;;;7.60;99.00;;;;;;5008464;28;20026;-56
2023/12/29 05:04:32;;;;;;;1.65;0.90;;;7.60;98.90;;;;;;5020766;28;20041;-57
2023/12/29 05:06:58;;;;;;;2.47;1.00;;;7.60;99.00;;;;;;5018814;28;20033;-57
2023/12/29 05:09:23;;;;;;;2.08;1.00;;;7.60;99.00;;;;;;5019094;28;20404;-56
2023/12/29 05:11:49;;;;;;;1.08;0.90;;;7.60;99.10;;;;;;5019872;28;20037;-57
2023/12/29 05:14:14;;;;;;;2.30;0.80;;;7.60;98.90;;;;;;5022678;28;20060;-57
2023/12/29 05:16:41;;;;;;;3.22;0.90;;;7.60;99.00;;;;;;5022556;28;20292;-56
2023/12/29 05:19:07;;;;;;;1.30;1.10;;;7.60;99.20;;;;;;5024498;28;20044;-57
2023/12/29 05:21:32;;;;;;;1.63;0.90;;;7.60;99.30;;;;;;5022460;28;20411;-56
2023/12/29 05:23:58;;;;;;;1.23;1.13;;;7.70;99.40;;;;;;5022553;28;20658;-57
2023/12/29 05:26:23;;;;;;;2.22;1.10;;;7.70;99.50;;;;;;5019295;28;20040;-57
2023/12/29 05:28:49;;;;;;;1.60;0.90;;;7.70;99.30;;;;;;5014167;28;20038;-57
2023/12/29 05:31:14;;;;;;;2.80;1.08;;;7.80;99.40;;;;;;5017345;28;20406;-57
2023/12/29 05:33:40;;;;;;;2.15;1.10;;;7.80;99.40;;;;;;5015162;28;20094;-58
2023/12/29 05:36:07;;;;;;;1.58;1.00;;;7.80;99.30;;;;;;5019173;28;20105;-57
2023/12/29 05:38:34;;;;;;;1.77;0.93;;;7.80;99.10;;;;;;5022221;28;20104;-56
2023/12/29 05:41:01;;;;;;;1.70;0.88;;;7.80;99.10;;;;;;5022065;28;20403;-57
2023/12/29 05:43:26;;;;;;;2.53;1.42;;;7.90;99.00;;;;;;5020921;28;20029;-57
2023/12/29 05:45:52;;;;;;;1.45;0.90;;;7.90;99.10;;;;;;5021942;28;20025;-57
2023/12/29 05:48:17;;;;;;;1.63;0.93;;;7.90;99.00;;;;;;5022186;28;20368;-57
2023/12/29 05:50:43;;;;;;;1.88;1.00;;;7.90;98.80;;;;;;5023700;28;20266;-58
2023/12/29 05:53:08;;;;;;;2.72;1.23;;;7.90;98.80;;;;;;5019773;28;20025;-57
2023/12/29 05:55:34;;;;;;;2.13;1.17;;;7.90;98.70;;;;;;5021886;28;20037;-57
2023/12/29 05:57:59;;;;;;;1.40;1.00;;;7.90;98.80;;;;;;5022424;28;20120;-58
2023/12/29 06:00:25;;;;;;;0.88;0.70;;;7.90;98.80;;;;;;5021868;28;20048;-58
2023/12/29 06:02:50;;;;;;;1.05;0.85;;;7.90;98.70;;;;;;5007758;28;20022;-58
2023/12/29 06:05:16;;;;;;;4.38;1.10;;;8.00;98.60;;;;;;5019479;28;20033;-58
2023/12/29 06:07:41;;;;;;;0.80;0.80;;;8.10;98.40;;;;;;5009400;28;20024;-58
2023/12/29 06:10:08;;;;;;;1.67;0.95;;;8.10;98.30;;;;;;5014771;28;20036;-58
2023/12/29 06:12:34;;;;;;;2.33;0.95;;;8.10;98.20;;;;;;5014769;28;20099;-57
2023/12/29 06:14:59;;;;;;;1.38;0.75;;;8.20;97.90;;;;;;5018759;28;20480;-57
2023/12/29 06:17:25;;;;;;;2.45;1.10;;;8.20;97.60;;;;;;5013411;28;20060;-58
2023/12/29 06:19:50;;;;;;;2.92;1.45;;;8.20;97.40;;;;;;5019437;28;20029;-57
2023/12/29 06:22:16;;;;;;;1.20;0.90;;;8.30;97.20;;;;;;5016370;28;20120;-57
2023/12/29 06:24:41;;;;;;;1.50;0.80;;;8.30;97.20;;;;;;5021275;28;20038;-57
2023/12/29 06:27:09;;;;;;;1.10;0.95;;;8.30;97.20;;;;;;5021600;28;20025;-58
2023/12/29 06:29:35;;;;;;;2.13;0.98;;;8.30;97.20;;;;;;5021277;28;20430;-58
2023/12/29 06:32:02;;;;;;;3.42;1.10;;;8.30;96.80;;;;;;5016178;28;20036;-57
2023/12/29 06:34:27;;;;;;;2.72;0.80;;;8.30;96.70;;;;;;5015740;28;20017;-58
2023/12/29 06:36:53;;;;;;;2.88;1.20;;;8.30;96.80;;;;;;5013975;28;20292;-57
2023/12/29 06:39:18;;;;;;;2.45;1.23;;;8.40;96.80;;;;;;5016465;28;20042;-58
2023/12/29 06:41:44;;;;;;;4.05;0.90;;;8.40;96.70;;;;;;5019621;28;20029;-58
2023/12/29 06:44:10;;;;;;;3.45;1.08;;;8.40;96.50;;;;;;5020874;28;20126;-58
2023/12/29 06:46:39;;;;;;;1.55;0.80;;;8.40;96.30;;;;;;5014929;28;20112;-58
2023/12/29 06:49:07;;;;;;;1.15;0.80;;;8.50;96.20;;;;;;5020971;28;20029;-58
2023/12/29 06:51:34;;;;;;;1.77;0.80;;;8.50;96.10;;;;;;5022747;28;20061;-56
2023/12/29 06:53:59;;;;;;;1.50;0.90;;;8.50;95.60;;;;;;5018523;28;20021;-57
2023/12/29 06:56:25;;;;;;;3.03;1.08;;;8.60;95.50;;;;;;5020865;28;20387;-58
2023/12/29 06:58:51;;;;;;;2.60;0.88;;;8.60;95.50;;;;;;5020722;28;20054;-57
2023/12/29 07:01:17;;;;;;;1.58;0.90;;;8.60;95.40;;;;;;5020334;28;20036;-58
2023/12/29 07:03:42;;;;;;;1.98;1.15;;;8.70;95.30;;;;;;5012944;28;20578;-57
2023/12/29 07:06:08;;;;;;;3.03;1.00;;;8.70;94.90;;;;;;5020688;28;20021;-57
2023/12/29 07:08:34;;;;;;;1.77;0.95;;;8.70;95.00;;;;;;5017095;28;20038;-57
2023/12/29 07:11:00;;;;;;;1.33;1.10;;;8.70;94.80;;;;;;5017771;28;20033;-58
2023/12/29 07:13:25;;;;;;;3.13;1.52;;;8.70;94.80;;;;;;5020879;28;20781;-57
2023/12/29 07:15:50;;;;;;;2.83;1.00;;;8.80;94.50;;;;;;5020184;28;20492;-58
2023/12/29 07:18:16;;;;;;;2.20;1.00;;;8.80;94.30;;;;;;5020451;28;20017;-58
2023/12/29 07:20:42;;;;;;;1.17;0.90;;;8.80;94.20;;;;;;5020392;28;20033;-58
2023/12/29 07:23:08;;;;;;;3.50;1.20;;;8.80;94.30;;;;;;5022120;28;20060;-57
2023/12/29 07:25:34;;;;;;;1.27;1.00;;;8.80;94.30;;;;;;5021782;28;20052;-59
2023/12/29 07:27:59;;;;;;;3.95;1.23;;;8.90;94.20;;;;;;5019940;28;20037;-57
2023/12/29 07:30:25;;;;;;;3.03;1.20;;;8.90;93.70;;;;;;5020418;28;20380;-57
2023/12/29 07:32:51;;;;;;;2.90;1.20;;;9.00;93.60;;;;;;5019955;28;20661;-58
2023/12/29 07:35:17;;;;;;;3.60;1.38;;;9.00;93.40;;;;;;5019640;28;20125;-58
2023/12/29 07:37:43;;;;;;;4.07;1.02;;;9.00;93.40;;;;;;5022008;28;20025;-57
2023/12/29 07:40:13;;;;;;;2.80;1.30;;;9.00;93.20;;;;;;5021401;28;20057;-58
2023/12/29 07:42:44;;;;;;;3.15;1.10;;;9.10;93.30;;;;;;5017741;28;20021;-58
2023/12/29 07:45:09;;;;;;;1.50;1.40;;;9.10;93.20;;;;;;5021679;28;20014;-58
2023/12/29 07:47:35;;;;;;;2.15;1.20;;;9.20;93.20;;;;;;5019751;28;20453;-58
2023/12/29 07:50:01;;;;;;;2.17;1.15;;;9.20;93.10;;;;;;5019686;28;20064;-58
2023/12/29 07:52:27;;;;;;;4.38;1.52;;;9.20;92.80;;;;;;5019620;28;20076;-57
2023/12/29 07:54:52;;;;;;;2.65;1.30;;;9.30;93.30;;;;;;5019790;28;20037;-58
2023/12/29 07:57:17;;;;;;;5.78;2.30;;;9.30;92.70;;;;;;5021365;28;20468;-58
2023/12/29 07:59:43;;;;;;;3.28;1.98;;;9.40;92.60;;;;;;5019867;28;20025;-57
2023/12/29 08:02:08;;;;;;;2.83;1.25;;;9.40;92.40;;;;;;5016145;28;20044;-57
2023/12/29 08:04:35;;;;;;;4.43;1.30;;;9.50;92.60;;;;;;5019539;28;20104;-59
2023/12/29 08:07:00;;;;;;;2.40;1.38;;;9.40;92.70;;;;;;5019701;28;20104;-57
2023/12/29 08:09:26;;;;;;;3.50;1.67;;;9.50;92.40;;;;;;5019336;28;20096;-58
2023/12/29 08:11:51;;;;;;;4.13;1.38;;;9.60;92.40;;;;;;5021181;28;20029;-58
2023/12/29 08:14:17;;;;;;;1.88;1.50;;;9.60;92.10;;;;;;5019474;28;20025;-58
2023/12/29 08:16:42;;;;;;;1.55;1.00;;;9.60;92.10;;;;;;5019580;28;20030;-58
2023/12/29 08:19:09;;;;;;;2.75;1.50;;;9.60;91.80;;;;;;5019104;28;20037;-57
2023/12/29 08:21:35;;;;;;;3.65;1.25;;;9.60;91.80;;;;;;5019392;28;20072;-57
2023/12/29 08:24:01;;;;;;;3.38;1.10;;;9.70;91.80;;;;;;5019476;28;20033;-57
2023/12/29 08:26:26;;;;;;;1.90;1.15;;;9.70;91.80;;;;;;5017777;28;20071;-58
2023/12/29 08:28:52;;;;;;;1.95;1.00;;;9.80;91.80;;;;;;5021246;28;20757;-58
2023/12/29 08:31:18;;;;;;;1.40;1.30;;;10.00;91.40;;;;;;5019163;28;20033;-58
2023/12/29 08:33:44;;;;;;;2.05;1.27;;;10.00;91.20;;;;;;5019225;28;20021;-58
2023/12/29 08:36:11;;;;;;;3.30;1.30;;;10.00;91.10;;;;;;5019229;28;20022;-57
2023/12/29 08:38:37;;;;;;;2.47;0.90;;;10.10;90.80;;;;;;5019169;28;20029;-58
2023/12/29 08:41:02;;;;;;;3.58;1.05;;;10.20;90.70;;;;;;5019199;28;20098;-59
2023/12/29 08:43:28;;;;;;;3.08;1.55;;;10.30;90.60;;;;;;5016595;28;20033;-59
2023/12/29 08:45:54;;;;;;;3.75;1.77;;;10.30;90.50;;;;;;5020792;28;20064;-59
2023/12/29 08:48:19;;;;;;;3.30;1.83;;;10.40;90.00;;;;;;5020707;28;20022;-58
2023/12/29 08:50:45;;;;;;;2.83;1.17;;;10.60;90.00;;;;;;5022927;28;20029;-57
2023/12/29 08:53:10;;;;;;;4.10;1.52;;;10.80;89.20;;;;;;5022927;28;20029;-57
2023/12/29 08:55:36;;;;;;;3.25;1.30;;;10.90;87.90;;;;;;5023251;28;20399;-57
2023/12/29 08:58:01;;;;;;;3.08;1.60;;;10.90;87.40;;;;;;5023013;28;20033;-58
2023/12/29 09:00:28;;;;;;;2.45;1.05;;;10.90;87.50;;;;;;5024647;28;20030;-57
2023/12/29 09:02:54;;;;;;;2.90;1.20;;;10.90;88.00;;;;;;5016407;28;20412;-57
2023/12/29 09:05:19;;;;;;;2.83;1.90;;;10.90;87.50;;;;;;5022862;28;20120;-58
2023/12/29 09:07:44;;;;;;;1.98;1.38;;;10.90;87.50;;;;;;5021563;28;20024;-58
2023/12/29 09:10:12;;;;;;;2.25;1.40;;;11.10;87.90;;;;;;5020414;28;20056;-58
2023/12/29 09:12:38;;;;;;;6.18;1.58;;;11.20;86.20;;;;;;5018810;28;20037;-59
2023/12/29 09:15:05;;;;;;;4.05;1.40;;;11.20;86.10;;;;;;5020934;28;20075;-57
2023/12/29 09:17:30;;;;;;;3.95;1.48;;;11.20;85.60;;;;;;5020522;28;20033;-57
2023/12/29 09:19:56;;;;;;;3.00;1.50;;;11.20;86.00;;;;;;5017196;28;20151;-69
2023/12/29 09:22:21;;;;;;;3.97;1.35;;;11.10;85.80;;;;;;5021819;28;20030;-60
2023/12/29 09:24:47;;;;;;;2.72;1.33;;;11.20;85.30;;;;;;5021014;28;20077;-60
2023/12/29 09:27:13;;;;;;;2.63;1.02;;;11.20;84.60;;;;;;5018915;28;20029;-60
2023/12/29 09:29:40;;;;;;;1.95;1.42;;;11.20;84.50;;;;;;5020947;28;20526;-59
2023/12/29 09:32:06;;;;;;;2.10;1.40;;;11.10;84.40;;;;;;5018671;28;20064;-59
2023/12/29 09:34:31;;;;;;;4.28;1.40;;;11.10;84.50;;;;;;5017544;28;20021;-61
2023/12/29 09:36:57;;;;;;;4.03;1.88;;;11.00;84.80;;;;;;5016992;28;20048;-60
2023/12/29 09:39:22;;;;;;;2.08;1.00;;;11.00;85.00;;;;;;5016853;28;20116;-61
2023/12/29 09:41:57;;;;;;;2.78;1.05;;;10.90;85.10;;;;;;5016504;28;20633;-60
2023/12/29 09:44:23;;;;;;;1.65;0.98;;;10.90;85.00;;;;;;5020263;28;20049;-60
2023/12/29 09:46:52;;;;;;;2.75;1.20;;;10.80;85.20;;;;;;5018799;28;20403;-60
2023/12/29 09:49:19;;;;;;;2.10;1.20;;;10.80;85.40;;;;;;5018922;28;20029;-60
2023/12/29 09:51:45;;;;;;;2.55;1.30;;;10.90;85.80;;;;;;5019140;28;20037;-59
2023/12/29 09:54:12;;;;;;;2.33;1.20;;;11.00;85.40;;;;;;5016271;28;20035;-59
2023/12/29 09:56:38;;;;;;;3.90;1.27;;;11.10;85.40;;;;;;5022350;28;20550;-60
2023/12/29 09:59:04;;;;;;;2.20;1.23;;;11.00;85.20;;;;;;5020193;28;20041;-60
2023/12/29 10:01:31;;;;;;;7.15;1.98;;;11.00;85.00;;;;;;5017060;28;20044;-57
2023/12/29 10:03:57;;;;;;;2.25;1.17;;;11.00;84.50;;;;;;5020445;28;20091;-58
2023/12/29 10:06:26;;;;;;;4.32;1.63;;;11.00;85.10;;;;;;5020548;28;20033;-58
2023/12/29 10:08:53;;;;;;;2.45;1.25;;;11.00;84.70;;;;;;5014957;28;20104;-57
2023/12/29 10:11:21;;;;;;;1.92;1.30;;;10.90;84.90;;;;;;5019428;28;20030;-58
2023/12/29 10:13:49;;;;;;;4.03;1.25;;;10.90;84.90;;;;;;5015979;28;20025;-58
2023/12/29 10:16:31;;;;;;;2.92;1.30;;;10.90;85.00;;;;;;5017859;28;20026;-58
2023/12/29 10:19:21;;;;;;;5.70;1.50;;;10.90;85.00;;;;;;5017189;28;20033;-56
2023/12/29 10:22:03;;;;;;;3.67;0.98;;;10.90;85.10;;;;;;5033068;28;20017;-58
2023/12/29 10:24:29;;;;;;;1.42;0.80;;;10.90;85.10;;;;;;5019605;28;20038;-58
2023/12/29 10:26:55;;;;;;;3.90;1.33;;;10.90;85.20;;;;;;5020318;28;20029;-58
2023/12/29 10:29:21;;;;;;;7.68;1.63;;;10.90;84.90;;;;;;5019039;28;20023;-54
2023/12/29 10:31:47;;;;;;;2.90;1.33;;;10.90;85.20;;;;;;5015572;28;20510;-58
2023/12/29 10:34:30;;;;;;;4.03;1.10;;;11.00;85.00;;;;;;5013422;28;20191;-57
2023/12/29 10:36:56;;;;;;;3.10;1.23;;;11.00;85.60;;;;;;5015486;28;20109;-59
2023/12/29 10:39:23;;;;;;;1.92;0.95;;;11.00;84.80;;;;;;5015704;28;20395;-58
2023/12/29 10:41:49;;;;;;;3.88;1.15;;;11.00;84.70;;;;;;5017324;28;20014;-58
2023/12/29 10:44:15;;;;;;;5.68;1.17;;;11.00;84.70;;;;;;5019537;28;20031;-57
2023/12/29 10:46:41;;;;;;;3.58;1.20;;;11.10;84.60;;;;;;5020624;28;20025;-58
2023/12/29 10:49:11;;;;;;;4.47;1.05;;;11.10;84.30;;;;;;5010790;28;20403;-58
2023/12/29 10:51:37;;;;;;;2.85;1.00;;;11.20;84.50;;;;;;5014296;28;20037;-58
2023/12/29 10:54:03;;;;;;;5.05;1.50;;;11.10;84.10;;;;;;5011123;28;20037;-58
2023/12/29 10:56:30;;;;;;;8.50;1.45;;;11.20;83.70;;;;;;5011553;28;20750;-57
2023/12/29 10:59:04;;;;;;;3.92;1.38;;;11.20;83.90;;;;;;5015428;28;20748;-57
2023/12/29 11:01:34;;;;;;;4.97;1.50;;;11.20;83.20;;;;;;5009410;28;20037;-58
2023/12/29 11:04:02;;;;;;;3.33;1.33;;;11.20;83.30;;;;;;5014019;28;20025;-58
2023/12/29 11:06:29;;;;;;;2.38;1.17;;;11.20;83.30;;;;;;5015264;28;20009;-58
2023/12/29 11:08:55;;;;;;;4.07;1.38;;;11.20;83.60;;;;;;5015456;28;20096;-57
2023/12/29 11:11:21;;;;;;;2.63;1.05;;;11.30;83.30;;;;;;5014060;28;20033;-60
2023/12/29 11:13:47;;;;;;;5.40;1.13;;;11.30;83.50;;;;;;5012695;28;20088;-58
2023/12/29 11:16:17;;;;;;;2.88;1.13;;;11.30;83.50;;;;;;5015909;28;20040;-57
2023/12/29 11:18:43;;;;;;;4.82;1.75;;;11.20;83.20;;;;;;5016433;28;20037;-57
2023/12/29 11:21:10;;;;;;;4.55;1.58;;;11.30;83.20;;;;;;5016521;28;20022;-56
2023/12/29 11:23:36;;;;;;;2.63;1.10;;;11.30;83.00;;;;;;5012235;28;20028;-59
2023/12/29 11:26:03;;;;;;;2.58;1.15;;;11.30;83.00;;;;;;5012022;28;20033;-57
2023/12/29 11:28:29;;;;;;;3.33;1.40;;;11.30;83.20;;;;;;5012885;28;20037;-57
2023/12/29 11:30:54;;;;;;;3.25;1.27;;;11.30;83.20;;;;;;5015436;28;20036;-57
2023/12/29 11:33:30;;;;;;;3.95;1.60;;;11.30;83.70;;;;;;5010596;28;20423;-57
2023/12/29 11:36:00;;;;;;;2.20;1.30;;;11.30;82.80;;;;;;5012290;28;20029;-57
2023/12/29 11:39:00;;;;;;;5.47;2.92;;;11.30;83.10;;;;;;5017773;28;20028;-58
2023/12/29 11:41:38;;;;;;;16.02;8.60;;;11.30;82.30;;;;;;5011692;28;20388;-58
2023/12/29 11:44:04;;;;;;;7.53;4.25;;;11.40;82.60;;;;;;5018031;28;20117;-58
2023/12/29 11:46:33;;;;;;;5.55;2.25;;;11.30;82.40;;;;;;5017174;28;20133;-59
2023/12/29 11:49:03;;;;;;;6.82;3.28;;;11.30;82.40;;;;;;5016394;28;20017;-58
2023/12/29 11:51:31;;;;;;;23.38;10.55;;;11.30;82.50;;;;;;5017489;28;20439;-57
2023/12/29 11:53:56;;;;;;;9.00;4.60;;;11.30;82.60;;;;;;5010324;28;20033;-57
2023/12/29 11:56:22;;;;;;;4.05;2.30;;;11.30;82.50;;;;;;5016399;28;20033;-58
2023/12/29 11:58:48;;;;;;;5.57;2.10;;;11.30;82.50;;;;;;5014025;28;20048;-57
2023/12/29 12:01:32;;;;;;;4.40;1.73;;;11.30;82.50;;;;;;5012255;28;20018;-57
2023/12/29 12:03:57;;;;;;;5.68;2.08;;;11.30;82.30;;;;;;5015828;28;20041;-58
2023/12/29 12:06:39;;;;;;;7.70;2.15;;;11.30;82.30;;;;;;5013317;28;20038;-59
2023/12/29 12:09:24;;;;;;;4.00;1.30;;;11.20;81.70;;;;;;5014316;28;20030;-58
2023/12/29 12:11:50;;;;;;;7.88;4.28;;;11.20;81.90;;;;;;5013057;28;20043;-57
2023/12/29 12:14:51;;;;;;;3.63;2.00;;;11.20;82.10;;;;;;5009527;28;20029;-57
2023/12/29 12:17:35;;;;;;;7.57;3.78;;;11.10;81.70;;;;;;5010391;28;20049;-57
2023/12/29 12:20:10;;;;;;;9.77;3.00;;;11.10;82.20;;;;;;5014000;28;20099;-57
2023/12/29 12:22:37;;;;;;;10.65;3.08;;;11.00;82.10;;;;;;5011560;28;20083;-57
2023/12/29 12:25:03;;;;;;;13.98;5.18;;;11.10;82.10;;;;;;5015061;28;20406;-58
2023/12/29 12:27:30;;;;;;;12.05;3.30;;;11.10;82.40;;;;;;5009941;28;20111;-57
2023/12/29 12:29:59;;;;;;;11.43;5.40;;;11.10;82.50;;;;;;5010564;28;20524;-59
2023/12/29 12:32:29;;;;;;;6.00;2.67;;;11.10;82.70;;;;;;5015020;28;20080;-57
2023/12/29 12:34:55;;;;;;;6.57;2.85;;;11.00;82.90;;;;;;5005221;28;20098;-58
2023/12/29 12:37:27;;;;;;;7.60;3.75;;;11.00;82.90;;;;;;5006808;28;20018;-56
2023/12/29 12:39:52;;;;;;;7.90;3.78;;;11.00;83.00;;;;;;5009897;28;20107;-56
2023/12/29 12:42:19;;;;;;;12.90;3.80;;;11.00;83.40;;;;;;5006412;28;20021;-55
2023/12/29 12:44:56;;;;;;;4.43;2.30;;;11.00;83.50;;;;;;5013709;28;20098;-57
2023/12/29 12:47:34;;;;;;;5.32;2.45;;;11.00;83.90;;;;;;5014490;28;20049;-60
2023/12/29 12:50:01;;;;;;;65.30;27.05;;;10.90;84.30;;;;;;5015590;28;20395;-57
2023/12/29 12:52:30;;;;;;;19.33;9.00;;;10.90;85.40;;;;;;5015149;28;20119;-58